createdAt,value
2024-01-20T00:01:07.105Z,100966.00
2024-01-20T00:03:35.828Z,100969.00
2024-01-20T00:06:05.252Z,100984.00
2024-01-20T00:08:34.440Z,100996.00
2024-01-20T00:11:03.311Z,100996.00
2024-01-20T00:13:33.522Z,100998.00
2024-01-20T00:16:03.923Z,100991.00
2024-01-20T00:18:32.795Z,100985.00
2024-01-20T00:21:01.733Z,100989.00
2024-01-20T00:23:30.489Z,100979.00
2024-01-20T00:25:59.681Z,100990.00
2024-01-20T00:28:28.770Z,100991.00
2024-01-20T00:30:59.137Z,100995.00
2024-01-20T00:33:28.409Z,101014.00
2024-01-20T00:35:57.339Z,101008.00
2024-01-20T00:38:26.727Z,101008.00
2024-01-20T00:40:55.615Z,101019.00
2024-01-20T00:43:24.498Z,101013.00
2024-01-20T00:45:53.273Z,101013.00
2024-01-20T00:48:23.637Z,101025.00
2024-01-20T00:50:52.663Z,101024.00
2024-01-20T00:53:21.537Z,101013.00
2024-01-20T00:55:50.462Z,101032.00
2024-01-20T00:58:19.570Z,101030.00
2024-01-20T01:00:48.370Z,101028.00
2024-01-20T01:03:17.252Z,101037.00
2024-01-20T01:05:47.501Z,101035.00
2024-01-20T01:08:16.274Z,101033.00
2024-01-20T01:10:45.163Z,101032.00
2024-01-20T01:13:13.938Z,101022.00
2024-01-20T01:15:42.865Z,101036.00
2024-01-20T01:18:11.669Z,101046.00
2024-01-20T01:20:40.538Z,101034.00
2024-01-20T01:23:10.658Z,101025.00
2024-01-20T01:25:40.179Z,101028.00
2024-01-20T01:28:08.929Z,101030.00
2024-01-20T01:30:37.652Z,101040.00
2024-01-20T01:33:06.829Z,101042.00
2024-01-20T01:35:35.610Z,101036.00
2024-01-20T01:38:05.004Z,101045.00
2024-01-20T01:40:35.133Z,101042.00
2024-01-20T01:43:03.984Z,101048.00
2024-01-20T01:45:32.712Z,101041.00
2024-01-20T01:48:01.717Z,101055.00
2024-01-20T01:50:31.296Z,101061.00
2024-01-20T01:53:00.750Z,101054.00
2024-01-20T01:55:29.802Z,101061.00
2024-01-20T01:58:01.143Z,101061.00
2024-01-20T02:00:30.757Z,101069.00
2024-01-20T02:02:59.935Z,101065.00
2024-01-20T02:05:28.870Z,101069.00
2024-01-20T02:07:59.577Z,101058.00
2024-01-20T02:10:28.476Z,101068.00
2024-01-20T02:12:58.905Z,101068.00
2024-01-20T02:15:29.292Z,101062.00
2024-01-20T02:17:58.388Z,101056.00
2024-01-20T02:20:27.404Z,101068.00
2024-01-20T02:22:57.706Z,101067.00
2024-01-20T02:25:26.526Z,101050.00
2024-01-20T02:27:55.412Z,101072.00
2024-01-20T02:30:24.337Z,101061.00
2024-01-20T02:32:53.411Z,101071.00
2024-01-20T02:35:22.414Z,101065.00
2024-01-20T02:37:51.437Z,101070.00
2024-01-20T02:40:21.755Z,101064.00
2024-01-20T02:42:50.857Z,101071.00
2024-01-20T02:45:19.927Z,101060.00
2024-01-20T02:47:48.960Z,101067.00
2024-01-20T02:50:17.878Z,101062.00
2024-01-20T02:52:46.700Z,101064.00
2024-01-20T02:55:15.738Z,101072.00
2024-01-20T02:57:46.293Z,101069.00
2024-01-20T03:00:15.766Z,101071.00
2024-01-20T03:02:44.668Z,101069.00
2024-01-20T03:05:13.731Z,101072.00
2024-01-20T03:07:42.620Z,101075.00
2024-01-20T03:10:12.089Z,101084.00
2024-01-20T03:12:40.942Z,101085.00
2024-01-20T03:15:11.952Z,101089.00
2024-01-20T03:17:40.775Z,101081.00
2024-01-20T03:20:11.225Z,101077.00
2024-01-20T03:22:39.954Z,101080.00
2024-01-20T03:25:09.705Z,101077.00
2024-01-20T03:27:38.448Z,101081.00
2024-01-20T03:30:08.560Z,101077.00
2024-01-20T03:32:38.771Z,101083.00
2024-01-20T03:35:07.989Z,101091.00
2024-01-20T03:37:36.795Z,101087.00
2024-01-20T03:40:05.968Z,101082.00
2024-01-20T03:42:34.950Z,101090.00
2024-01-20T03:45:04.350Z,101081.00
2024-01-20T03:47:34.223Z,101071.00
2024-01-20T03:50:06.685Z,101081.00
2024-01-20T03:52:35.574Z,101084.00
2024-01-20T03:55:04.374Z,101094.00
2024-01-20T03:57:33.252Z,101091.00
2024-01-20T04:00:02.124Z,101095.00
2024-01-20T04:02:30.958Z,101104.00
2024-01-20T04:04:59.771Z,101114.00
2024-01-20T04:07:29.925Z,101108.00
2024-01-20T04:09:59.013Z,101111.00
2024-01-20T04:12:28.016Z,101118.00
2024-01-20T04:14:57.294Z,101108.00
2024-01-20T04:17:26.254Z,101112.00
2024-01-20T04:19:56.315Z,101118.00
2024-01-20T04:22:25.190Z,101111.00
2024-01-20T04:24:55.274Z,101117.00
2024-01-20T04:27:24.099Z,101127.00
2024-01-20T04:29:52.887Z,101122.00
2024-01-20T04:32:21.654Z,101118.00
2024-01-20T04:34:50.432Z,101128.00
2024-01-20T04:37:19.154Z,101134.00
2024-01-20T04:39:48.137Z,101131.00
2024-01-20T04:42:18.310Z,101125.00
2024-01-20T04:44:47.051Z,101124.00
2024-01-20T04:47:15.825Z,101130.00
2024-01-20T04:49:44.698Z,101125.00
2024-01-20T04:52:13.495Z,101119.00
2024-01-20T04:54:42.194Z,101126.00
2024-01-20T04:57:11.298Z,101132.00
2024-01-20T04:59:41.437Z,101132.00
2024-01-20T05:02:10.196Z,101133.00
2024-01-20T05:04:38.973Z,101143.00
2024-01-20T05:07:07.822Z,101143.00
2024-01-20T05:09:36.625Z,101141.00
2024-01-20T05:12:06.043Z,101142.00
2024-01-20T05:14:34.830Z,101142.00
2024-01-20T05:17:05.635Z,101139.00
2024-01-20T05:19:34.610Z,101160.00
2024-01-20T05:22:03.701Z,101149.00
2024-01-20T05:24:32.595Z,101153.00
2024-01-20T05:27:01.668Z,101155.00
2024-01-20T05:29:30.482Z,101152.00
2024-01-20T05:31:59.193Z,101152.00
2024-01-20T05:34:29.360Z,101164.00
2024-01-20T05:36:58.148Z,101165.00
2024-01-20T05:39:26.974Z,101168.00
2024-01-20T05:41:55.782Z,101184.00
2024-01-20T05:44:24.599Z,101164.00
2024-01-20T05:46:53.315Z,101171.00
2024-01-20T05:49:22.117Z,101164.00
2024-01-20T05:51:52.330Z,101169.00
2024-01-20T05:54:21.095Z,101169.00
2024-01-20T05:56:49.852Z,101173.00
2024-01-20T05:59:18.629Z,101167.00
2024-01-20T06:01:51.520Z,101176.00
2024-01-20T06:04:20.632Z,101180.00
2024-01-20T06:06:50.065Z,101178.00
2024-01-20T06:09:20.320Z,101193.00
2024-01-20T06:11:49.968Z,101183.00
2024-01-20T06:14:18.717Z,101194.00
2024-01-20T06:16:47.516Z,101197.00
2024-01-20T06:19:17.948Z,101198.00
2024-01-20T06:21:46.786Z,101201.00
2024-01-20T06:24:15.525Z,101206.00
2024-01-20T06:26:45.691Z,101211.00
2024-01-20T06:29:14.422Z,101210.00
2024-01-20T06:31:43.141Z,101223.00
2024-01-20T06:34:11.979Z,101217.00
2024-01-20T06:36:40.821Z,101217.00
2024-01-20T06:39:09.601Z,101227.00
2024-01-20T06:41:38.431Z,101218.00
2024-01-20T06:44:08.646Z,101229.00
2024-01-20T06:46:37.371Z,101218.00
2024-01-20T06:49:06.211Z,101237.00
2024-01-20T06:51:35.021Z,101237.00
2024-01-20T06:54:03.958Z,101235.00
2024-01-20T06:56:32.775Z,101241.00
2024-01-20T06:59:01.674Z,101253.00
2024-01-20T07:01:32.233Z,101235.00
2024-01-20T07:04:01.137Z,101243.00
2024-01-20T07:06:30.027Z,101253.00
2024-01-20T07:08:58.900Z,101258.00
2024-01-20T07:11:27.894Z,101251.00
2024-01-20T07:13:56.668Z,101265.00
2024-01-20T07:16:25.757Z,101262.00
2024-01-20T07:18:56.445Z,101278.00
2024-01-20T07:21:25.457Z,101281.00
2024-01-20T07:23:54.291Z,101284.00
2024-01-20T07:26:23.122Z,101297.00
2024-01-20T07:28:51.919Z,101285.00
2024-01-20T07:31:20.657Z,101286.00
2024-01-20T07:33:49.451Z,101290.00
2024-01-20T07:36:19.618Z,101275.00
2024-01-20T07:38:48.550Z,101278.00
2024-01-20T07:41:16.324Z,101274.00
2024-01-20T07:43:45.050Z,101283.00
2024-01-20T07:46:14.015Z,101281.00
2024-01-20T07:48:44.706Z,101287.00
2024-01-20T07:51:13.885Z,101288.00
2024-01-20T07:53:44.451Z,101287.00
2024-01-20T07:56:15.269Z,101292.00
2024-01-20T07:58:44.168Z,101289.00
2024-01-20T08:01:13.500Z,101298.00
2024-01-20T08:03:42.342Z,101307.00
2024-01-20T08:06:11.323Z,101306.00
2024-01-20T08:08:40.769Z,101301.00
2024-01-20T08:11:10.938Z,101293.00
2024-01-20T08:13:39.723Z,101313.00
2024-01-20T08:16:09.908Z,101306.00
2024-01-20T08:18:38.750Z,101313.00
2024-01-20T08:21:08.758Z,101318.00
2024-01-20T08:23:37.482Z,101316.00
2024-01-20T08:26:06.465Z,101316.00
2024-01-20T08:28:36.575Z,101321.00
2024-01-20T08:31:05.543Z,101323.00
2024-01-20T08:33:34.425Z,101325.00
2024-01-20T08:36:03.283Z,101322.00
2024-01-20T08:38:32.077Z,101318.00
2024-01-20T08:41:01.784Z,101330.00
2024-01-20T08:43:30.710Z,101326.00
2024-01-20T08:46:02.120Z,101322.00
2024-01-20T08:48:30.951Z,101340.00
2024-01-20T08:50:59.930Z,101334.00
2024-01-20T08:53:29.607Z,101337.00
2024-01-20T08:55:58.363Z,101340.00
2024-01-20T08:58:27.155Z,101334.00
2024-01-20T09:00:56.727Z,101351.00
2024-01-20T09:03:27.032Z,101359.00
2024-01-20T09:05:55.930Z,101372.00
2024-01-20T09:08:24.682Z,101363.00
2024-01-20T09:10:54.501Z,101358.00
2024-01-20T09:13:23.220Z,101364.00
2024-01-20T09:15:53.283Z,101368.00
2024-01-20T09:18:24.183Z,101361.00
2024-01-20T09:20:55.287Z,101374.00
2024-01-20T09:23:24.087Z,101365.00
2024-01-20T09:25:52.962Z,101370.00
2024-01-20T09:28:21.733Z,101375.00
2024-01-20T09:30:50.475Z,101383.00
2024-01-20T09:33:19.521Z,101383.00
2024-01-20T09:35:48.349Z,101380.00
2024-01-20T09:38:19.089Z,101391.00
2024-01-20T09:40:48.422Z,101401.00
2024-01-20T09:43:17.531Z,101386.00
2024-01-20T09:45:46.936Z,101399.00
2024-01-20T09:48:15.895Z,101403.00
2024-01-20T09:50:44.799Z,101402.00
2024-01-20T09:53:17.809Z,101394.00
2024-01-20T09:55:47.437Z,101391.00
2024-01-20T09:58:18.452Z,101394.00
2024-01-20T10:00:47.542Z,101398.00
2024-01-20T10:03:18.541Z,101390.00
2024-01-20T10:05:47.609Z,101384.00
2024-01-20T10:08:17.751Z,101387.00
2024-01-20T10:10:46.502Z,101386.00
2024-01-20T10:13:16.585Z,101371.00
2024-01-20T10:15:45.539Z,101387.00
2024-01-20T10:18:14.365Z,101374.00
2024-01-20T10:20:44.574Z,101388.00
2024-01-20T10:23:14.143Z,101383.00
2024-01-20T10:25:46.003Z,101380.00
2024-01-20T10:28:14.704Z,101379.00
2024-01-20T10:30:43.625Z,101381.00
2024-01-20T10:33:12.838Z,101375.00
2024-01-20T10:35:41.636Z,101379.00
2024-01-20T10:38:15.169Z,101377.00
2024-01-20T10:40:46.501Z,101383.00
2024-01-20T10:43:17.816Z,101385.00
2024-01-20T10:46:00.941Z,101392.00
2024-01-20T10:48:35.082Z,101383.00
2024-01-20T10:51:09.906Z,101379.00
2024-01-20T10:53:39.094Z,101394.00
2024-01-20T10:56:10.948Z,101393.00
2024-01-20T10:58:45.361Z,101375.00
2024-01-20T11:01:14.719Z,101383.00
2024-01-20T11:03:43.997Z,101379.00
2024-01-20T11:06:21.881Z,101374.00
2024-01-20T11:08:52.492Z,101377.00
2024-01-20T11:11:28.081Z,101386.00
2024-01-20T11:14:01.596Z,101383.00
2024-01-20T11:16:33.804Z,101394.00
2024-01-20T11:19:13.893Z,101381.00
2024-01-20T11:21:42.732Z,101384.00
2024-01-20T11:24:13.675Z,101378.00
2024-01-20T11:26:46.934Z,101388.00
2024-01-20T11:29:15.711Z,101380.00
2024-01-20T11:31:49.984Z,101390.00
2024-01-20T11:34:19.125Z,101361.00
2024-01-20T11:36:49.774Z,101378.00
2024-01-20T11:39:19.508Z,101384.00
2024-01-20T11:42:00.072Z,101392.00
2024-01-20T11:44:29.150Z,101403.00
2024-01-20T11:46:57.943Z,101399.00
2024-01-20T11:49:26.979Z,101387.00
2024-01-20T11:51:56.178Z,101389.00
2024-01-20T11:54:24.880Z,101402.00
2024-01-20T11:57:00.545Z,101383.00
2024-01-20T11:59:29.320Z,101381.00
2024-01-20T12:01:58.139Z,101384.00
2024-01-20T12:04:27.730Z,101379.00
2024-01-20T12:06:56.537Z,101385.00
2024-01-20T12:09:25.373Z,101367.00
2024-01-20T12:11:54.150Z,101380.00
2024-01-20T12:14:24.831Z,101381.00
2024-01-20T12:16:53.560Z,101375.00
2024-01-20T12:19:22.845Z,101373.00
2024-01-20T12:21:51.800Z,101377.00
2024-01-20T12:24:20.678Z,101379.00
2024-01-20T12:26:49.496Z,101382.00
2024-01-20T12:29:18.467Z,101376.00
2024-01-20T12:31:48.522Z,101384.00
2024-01-20T12:34:18.091Z,101389.00
2024-01-20T12:36:46.839Z,101379.00
2024-01-20T12:39:16.770Z,101376.00
2024-01-20T12:41:45.501Z,101369.00
2024-01-20T12:44:14.257Z,101374.00
2024-01-20T12:46:43.023Z,101377.00
2024-01-20T12:49:13.649Z,101372.00
2024-01-20T12:51:42.766Z,101368.00
2024-01-20T12:54:11.789Z,101351.00
2024-01-20T12:56:40.513Z,101355.00
2024-01-20T12:59:09.248Z,101362.00
2024-01-20T13:01:37.966Z,101368.00
2024-01-20T13:04:06.822Z,101358.00
2024-01-20T13:06:36.961Z,101357.00
2024-01-20T13:09:09.119Z,101348.00
2024-01-20T13:11:38.233Z,101366.00
2024-01-20T13:14:07.270Z,101365.00
2024-01-20T13:16:36.098Z,101371.00
2024-01-20T13:19:05.258Z,101357.00
2024-01-20T13:21:35.590Z,101378.00
2024-01-20T13:24:05.310Z,101381.00
2024-01-20T13:26:34.987Z,101380.00
2024-01-20T13:29:03.754Z,101386.00
2024-01-20T13:31:34.469Z,101381.00
2024-01-20T13:34:03.362Z,101390.00
2024-01-20T13:36:32.219Z,101382.00
2024-01-20T13:39:05.804Z,101377.00
2024-01-20T13:41:35.162Z,101374.00
2024-01-20T13:44:04.342Z,101382.00
2024-01-20T13:46:33.084Z,101385.00
2024-01-20T13:49:05.154Z,101394.00
2024-01-20T13:51:35.216Z,101387.00
2024-01-20T13:54:05.691Z,101392.00
2024-01-20T13:56:34.501Z,101395.00
2024-01-20T13:59:03.832Z,101403.00
2024-01-20T14:01:32.703Z,101400.00
2024-01-20T14:04:01.755Z,101404.00
2024-01-20T14:06:30.644Z,101399.00
2024-01-20T14:08:59.563Z,101398.00
2024-01-20T14:11:29.927Z,101405.00
2024-01-20T14:13:58.735Z,101401.00
2024-01-20T14:16:29.607Z,101405.00
2024-01-20T14:18:59.055Z,101408.00
2024-01-20T14:21:28.766Z,101405.00
2024-01-20T14:23:57.599Z,101407.00
2024-01-20T14:26:26.320Z,101424.00
2024-01-20T14:28:56.984Z,101417.00
2024-01-20T14:31:25.730Z,101408.00
2024-01-20T14:33:54.563Z,101420.00
2024-01-20T14:36:23.446Z,101418.00
2024-01-20T14:38:52.726Z,101416.00
2024-01-20T14:41:21.466Z,101419.00
2024-01-20T14:43:50.270Z,101425.00
2024-01-20T14:46:20.387Z,101420.00
2024-01-20T14:48:49.126Z,101416.00
2024-01-20T14:51:18.095Z,101425.00
2024-01-20T14:53:47.297Z,101432.00
2024-01-20T14:56:16.087Z,101432.00
2024-01-20T14:58:44.873Z,101437.00
2024-01-20T15:01:13.729Z,101440.00
2024-01-20T15:03:43.987Z,101440.00
2024-01-20T15:06:13.306Z,101440.00
2024-01-20T15:08:42.150Z,101451.00
2024-01-20T15:11:10.884Z,101458.00
2024-01-20T15:13:39.566Z,101466.00
2024-01-20T15:16:08.595Z,101460.00
2024-01-20T15:18:37.459Z,101461.00
2024-01-20T15:21:08.071Z,101478.00
2024-01-20T15:23:36.833Z,101477.00
2024-01-20T15:26:05.962Z,101490.00
2024-01-20T15:28:34.702Z,101487.00
2024-01-20T15:31:03.625Z,101492.00
2024-01-20T15:33:32.561Z,101501.00
2024-01-20T15:36:01.547Z,101499.00
2024-01-20T15:38:31.782Z,101484.00
2024-01-20T15:41:00.507Z,101499.00
2024-01-20T15:43:29.772Z,101495.00
2024-01-20T15:45:58.567Z,101495.00
2024-01-20T15:48:27.821Z,101503.00
2024-01-20T15:50:56.612Z,101503.00
2024-01-20T15:53:25.327Z,101510.00
2024-01-20T15:55:55.798Z,101509.00
2024-01-20T15:58:24.496Z,101507.00
2024-01-20T16:00:53.350Z,101511.00
2024-01-20T16:03:22.273Z,101511.00
2024-01-20T16:05:51.083Z,101508.00
2024-01-20T16:08:19.810Z,101521.00
2024-01-20T16:10:48.580Z,101516.00
2024-01-20T16:13:19.079Z,101520.00
2024-01-20T16:15:47.969Z,101520.00
2024-01-20T16:18:17.435Z,101515.00
2024-01-20T16:20:47.590Z,101523.00
2024-01-20T16:23:18.052Z,101517.00
2024-01-20T16:25:47.725Z,101518.00
2024-01-20T16:28:17.821Z,101530.00
2024-01-20T16:30:46.973Z,101530.00
2024-01-20T16:33:16.036Z,101527.00
2024-01-20T16:35:45.081Z,101539.00
2024-01-20T16:38:13.802Z,101543.00
2024-01-20T16:40:42.614Z,101536.00
2024-01-20T16:43:12.437Z,101548.00
2024-01-20T16:45:46.038Z,101554.00
2024-01-20T16:48:15.166Z,101559.00
2024-01-20T16:50:43.931Z,101556.00
2024-01-20T16:53:15.739Z,101552.00
2024-01-20T16:55:44.830Z,101553.00
2024-01-20T16:58:14.146Z,101553.00
2024-01-20T17:00:44.490Z,101549.00
2024-01-20T17:03:13.393Z,101551.00
2024-01-20T17:05:42.494Z,101545.00
2024-01-20T17:08:11.417Z,101550.00
2024-01-20T17:10:40.196Z,101539.00
2024-01-20T17:13:09.079Z,101559.00
2024-01-20T17:15:37.930Z,101562.00
2024-01-20T17:18:09.618Z,101565.00
2024-01-20T17:20:38.589Z,101566.00
2024-01-20T17:23:07.549Z,101557.00
2024-01-20T17:25:36.432Z,101563.00
2024-01-20T17:28:05.618Z,101572.00
2024-01-20T17:30:34.490Z,101565.00
2024-01-20T17:33:04.420Z,101577.00
2024-01-20T17:35:34.726Z,101583.00
2024-01-20T17:38:03.688Z,101592.00
2024-01-20T17:40:32.527Z,101579.00
2024-01-20T17:43:01.261Z,101581.00
2024-01-20T17:45:30.317Z,101587.00
2024-01-20T17:47:59.391Z,101576.00
2024-01-20T17:50:28.233Z,101583.00
2024-01-20T17:52:58.837Z,101591.00
2024-01-20T17:55:31.466Z,101583.00
2024-01-20T17:58:01.304Z,101583.00
2024-01-20T18:00:30.737Z,101593.00
2024-01-20T18:02:59.594Z,101590.00
2024-01-20T18:05:28.606Z,101596.00
2024-01-20T18:07:58.917Z,101588.00
2024-01-20T18:10:27.848Z,101595.00
2024-01-20T18:12:57.450Z,101594.00
2024-01-20T18:15:26.245Z,101599.00
2024-01-20T18:17:55.310Z,101606.00
2024-01-20T18:20:24.479Z,101605.00
2024-01-20T18:22:53.262Z,101608.00
2024-01-20T18:25:23.379Z,101602.00
2024-01-20T18:27:52.216Z,101605.00
2024-01-20T18:30:22.412Z,101601.00
2024-01-20T18:32:51.227Z,101622.00
2024-01-20T18:35:20.308Z,101613.00
2024-01-20T18:37:50.363Z,101619.00
2024-01-20T18:40:19.368Z,101603.00
2024-01-20T18:42:51.142Z,101620.00
2024-01-20T18:45:20.306Z,101603.00
2024-01-20T18:47:49.351Z,101619.00
2024-01-20T18:50:18.676Z,101625.00
2024-01-20T18:52:47.540Z,101631.00
2024-01-20T18:55:16.371Z,101639.00
2024-01-20T18:57:45.273Z,101624.00
2024-01-20T19:00:16.309Z,101629.00
2024-01-20T19:02:45.435Z,101631.00
2024-01-20T19:05:14.474Z,101638.00
2024-01-20T19:07:43.288Z,101629.00
2024-01-20T19:10:12.634Z,101622.00
2024-01-20T19:12:42.633Z,101627.00
2024-01-20T19:15:11.698Z,101627.00
2024-01-20T19:17:42.232Z,101631.00
2024-01-20T19:20:11.587Z,101631.00
2024-01-20T19:22:40.387Z,101635.00
2024-01-20T19:25:11.370Z,101639.00
2024-01-20T19:27:40.461Z,101638.00
2024-01-20T19:30:10.514Z,101642.00
2024-01-20T19:32:40.824Z,101644.00
2024-01-20T19:35:09.909Z,101628.00
2024-01-20T19:37:38.665Z,101642.00
2024-01-20T19:40:10.072Z,101642.00
2024-01-20T19:42:38.896Z,101638.00
2024-01-20T19:45:08.319Z,101653.00
2024-01-20T19:47:37.609Z,101653.00
2024-01-20T19:50:09.110Z,101657.00
2024-01-20T19:52:38.905Z,101656.00
2024-01-20T19:55:09.194Z,101651.00
2024-01-20T19:57:39.074Z,101646.00
2024-01-20T20:00:11.733Z,101655.00
2024-01-20T20:02:40.553Z,101657.00
2024-01-20T20:05:11.020Z,101662.00
2024-01-20T20:07:39.973Z,101661.00
2024-01-20T20:10:10.819Z,101664.00
2024-01-20T20:12:39.882Z,101667.00
2024-01-20T20:15:10.203Z,101656.00
2024-01-20T20:17:39.371Z,101663.00
2024-01-20T20:20:10.956Z,101657.00
2024-01-20T20:22:40.079Z,101660.00
2024-01-20T20:25:09.393Z,101652.00
2024-01-20T20:27:38.334Z,101657.00
2024-01-20T20:30:08.252Z,101658.00
2024-01-20T20:32:39.614Z,101658.00
2024-01-20T20:35:13.070Z,101657.00
2024-01-20T20:37:42.463Z,101658.00
2024-01-20T20:40:13.016Z,101668.00
2024-01-20T20:42:42.484Z,101661.00
2024-01-20T20:45:11.890Z,101663.00
2024-01-20T20:47:40.906Z,101668.00
2024-01-20T20:50:17.828Z,101661.00
2024-01-20T20:52:46.964Z,101656.00
2024-01-20T20:55:15.862Z,101659.00
2024-01-20T20:57:44.672Z,101647.00
2024-01-20T21:00:16.802Z,101653.00
2024-01-20T21:02:46.380Z,101653.00
2024-01-20T21:05:18.125Z,101651.00
2024-01-20T21:07:47.416Z,101650.00
2024-01-20T21:10:18.824Z,101651.00
2024-01-20T21:12:49.058Z,101643.00
2024-01-20T21:15:18.659Z,101652.00
2024-01-20T21:17:47.629Z,101649.00
2024-01-20T21:20:18.189Z,101643.00
2024-01-20T21:22:47.205Z,101640.00
2024-01-20T21:25:17.921Z,101643.00
2024-01-20T21:27:47.122Z,101643.00
2024-01-20T21:30:16.617Z,101644.00
2024-01-20T21:32:46.345Z,101636.00
2024-01-20T21:35:16.658Z,101644.00
2024-01-20T21:37:46.098Z,101648.00
2024-01-20T21:40:15.308Z,101650.00
2024-01-20T21:42:44.231Z,101645.00
2024-01-20T21:45:13.255Z,101656.00
2024-01-20T21:47:42.162Z,101648.00
2024-01-20T21:50:11.838Z,101656.00
2024-01-20T21:52:42.130Z,101653.00
2024-01-20T21:55:11.307Z,101648.00
2024-01-20T21:57:42.639Z,101646.00
2024-01-20T22:00:12.405Z,101648.00
2024-01-20T22:02:41.154Z,101635.00
2024-01-20T22:05:10.657Z,101637.00
2024-01-20T22:07:40.837Z,101628.00
2024-01-20T22:10:10.245Z,101631.00
2024-01-20T22:12:39.140Z,101627.00
2024-01-20T22:15:09.241Z,101632.00
2024-01-20T22:17:38.072Z,101625.00
2024-01-20T22:20:09.595Z,101621.00
2024-01-20T22:22:39.015Z,101614.00
2024-01-20T22:25:10.539Z,101615.00
2024-01-20T22:27:39.719Z,101614.00
2024-01-20T22:30:10.478Z,101622.00
2024-01-20T22:32:40.482Z,101604.00
2024-01-20T22:35:10.047Z,101612.00
2024-01-20T22:37:38.803Z,101618.00
2024-01-20T22:40:11.282Z,101612.00
2024-01-20T22:42:40.085Z,101623.00
2024-01-20T22:45:11.135Z,101619.00
2024-01-20T22:47:40.416Z,101621.00
2024-01-20T22:50:11.928Z,101618.00
2024-01-20T22:52:41.283Z,101639.00
2024-01-20T22:55:11.864Z,101632.00
2024-01-20T22:57:41.018Z,101634.00
2024-01-20T23:00:14.202Z,101633.00
2024-01-20T23:02:43.351Z,101641.00
2024-01-20T23:05:12.535Z,101645.00
2024-01-20T23:07:41.469Z,101634.00
2024-01-20T23:10:12.306Z,101634.00
2024-01-20T23:12:41.330Z,101631.00
2024-01-20T23:15:11.185Z,101629.00
2024-01-20T23:17:40.116Z,101629.00
2024-01-20T23:20:11.455Z,101633.00
2024-01-20T23:22:40.509Z,101619.00
2024-01-20T23:25:11.417Z,101619.00
2024-01-20T23:27:40.233Z,101616.00
2024-01-20T23:30:09.816Z,101608.00
2024-01-20T23:32:38.675Z,101600.00
2024-01-20T23:35:08.668Z,101616.00
2024-01-20T23:37:37.370Z,101609.00
2024-01-20T23:40:06.881Z,101621.00
2024-01-20T23:42:37.238Z,101608.00
2024-01-20T23:45:06.971Z,101606.00
2024-01-20T23:47:35.793Z,101602.00
2024-01-20T23:50:04.719Z,101597.00
2024-01-20T23:52:34.822Z,101592.00
2024-01-20T23:55:03.842Z,101591.00
2024-01-20T23:57:33.747Z,101592.00
